Camp Pohakuloa, Hawaii
Current Conditions -  °F | °C
As of 12:56 PM on Friday 24 Oct 2014 (Local Time) from PHSF Reporting Station
Clear Clear  
Wind Chill: 68°   Ceiling: Unl
Heat Index: 68°   Visibility: 10mi
Dew Point: 37°   Wind: 13mph
Humidity: 33%   Direction: 150°SSE
Pressure: 30.33"   Gusts: 21mph
Location:  19.76°N, 155.56°W
Report Text: PHSF 242256Z AUTO 15011G18KT 10SM CLR 20/03 A3033 RMK AO2 SLP157 T01990030 $
Loading
Personal Weather Stations






























Interactive Weather Map
Tropical Storm Tracking
New forecast layout! Learn more

10-Day Weather Forecast

Advertisements
Track Severe Weather on mobile